createdAt,value
2023-05-12T04:31:55.697Z,100334.19
2023-05-12T04:34:58.404Z,100334.19
2023-05-12T04:38:03.886Z,100336.56
2023-05-12T04:41:06.621Z,100341.91
2023-05-12T04:44:09.195Z,100336.06
2023-05-12T04:47:12.173Z,100338.34
2023-05-12T04:50:14.868Z,100336.94
2023-05-12T04:53:17.559Z,100338.50
2023-05-12T04:56:20.155Z,100336.78
2023-05-12T04:59:22.729Z,100342.03
2023-05-12T05:02:28.239Z,100337.81
2023-05-12T05:05:31.665Z,100344.09
2023-05-12T05:08:34.775Z,100337.78
2023-05-12T05:11:38.216Z,100338.47
2023-05-12T05:14:42.612Z,100340.25
2023-05-12T05:17:51.105Z,100334.34
2023-05-12T05:20:58.540Z,100337.91
2023-05-12T05:24:03.587Z,100337.72
2023-05-12T05:27:07.762Z,100342.88
2023-05-12T05:30:12.989Z,100333.28
2023-05-12T05:33:22.060Z,100341.69
2023-05-12T05:36:31.929Z,100351.75
2023-05-12T05:39:52.529Z,100354.47
2023-05-12T05:42:57.320Z,100353.41
2023-05-12T05:46:14.722Z,100356.25
2023-05-12T05:49:23.423Z,100354.56
2023-05-12T05:52:27.982Z,100360.69
2023-05-12T05:55:35.506Z,100369.22
2023-05-12T05:58:38.721Z,100365.09
2023-05-12T06:01:43.389Z,100363.25
2023-05-12T06:04:48.353Z,100359.50
2023-05-12T06:08:12.439Z,100366.88
2023-05-12T06:11:19.954Z,100364.75
2023-05-12T06:14:24.630Z,100365.66
2023-05-12T06:17:32.605Z,100367.31
2023-05-12T06:20:38.697Z,100361.03
2023-05-12T06:23:45.365Z,100372.22
2023-05-12T06:26:50.247Z,100369.28
2023-05-12T06:29:53.602Z,100368.97
2023-05-12T06:32:59.950Z,100370.53
2023-05-12T06:36:11.959Z,100370.53
2023-05-12T06:39:23.638Z,100365.00
2023-05-12T06:42:40.343Z,100373.59
2023-05-12T06:45:45.873Z,100377.09
2023-05-12T06:48:53.973Z,100374.66
2023-05-12T06:52:02.159Z,100373.09
2023-05-12T06:55:13.758Z,100365.91
2023-05-12T06:58:27.522Z,100361.56
2023-05-12T07:01:33.028Z,100373.72
2023-05-12T07:04:37.578Z,100369.41
2023-05-12T07:07:43.871Z,100375.72
2023-05-12T07:10:52.130Z,100368.53
2023-05-12T07:14:02.521Z,100368.06
2023-05-12T07:17:08.728Z,100374.34
2023-05-12T07:20:13.891Z,100367.41
2023-05-12T07:23:16.988Z,100370.62
2023-05-12T07:26:19.684Z,100369.47
2023-05-12T07:29:22.648Z,100373.72
2023-05-12T07:32:25.689Z,100372.00
2023-05-12T07:35:28.762Z,100367.34
2023-05-12T07:38:32.219Z,100367.59
2023-05-12T07:41:34.865Z,100366.06
2023-05-12T07:44:44.547Z,100371.09
2023-05-12T07:47:51.490Z,100369.59
2023-05-12T07:50:56.597Z,100377.88
2023-05-12T07:54:01.218Z,100379.22
2023-05-12T07:57:11.939Z,100380.81
2023-05-12T08:00:16.451Z,100377.41
2023-05-12T08:03:22.476Z,100377.38
2023-05-12T08:06:27.307Z,100375.34
2023-05-12T08:09:31.747Z,100380.78
2023-05-12T08:12:51.397Z,100382.84
2023-05-12T08:15:56.505Z,100378.84
2023-05-12T08:19:01.739Z,100386.22
2023-05-12T08:22:18.269Z,100390.63
2023-05-12T08:25:24.399Z,100392.34
2023-05-12T08:28:34.533Z,100400.38
2023-05-12T08:31:41.017Z,100401.03
2023-05-12T08:34:50.505Z,100396.56
2023-05-12T08:37:55.102Z,100394.62
2023-05-12T08:41:23.492Z,100391.22
2023-05-12T08:44:30.075Z,100399.34
2023-05-12T08:47:35.216Z,100399.78
2023-05-12T08:50:40.961Z,100411.16
2023-05-12T08:53:49.187Z,100409.94
2023-05-12T09:00:05.547Z,100414.38
2023-05-12T09:03:18.325Z,100426.38
2023-05-12T09:06:21.641Z,100424.59
2023-05-12T09:09:24.485Z,100431.66
2023-05-12T09:12:29.632Z,100432.31
2023-05-12T09:15:36.142Z,100431.31
2023-05-12T09:18:52.233Z,100436.25
2023-05-12T09:21:54.910Z,100432.28
2023-05-12T09:24:57.527Z,100433.87
2023-05-12T09:28:00.054Z,100448.66
2023-05-12T09:31:04.240Z,100442.75
2023-05-12T09:34:10.380Z,100444.81
2023-05-12T09:37:15.376Z,100446.69
2023-05-12T09:40:17.954Z,100445.72
2023-05-12T09:43:20.545Z,100442.66
2023-05-12T09:46:25.021Z,100443.44
2023-05-12T09:49:28.091Z,100449.63
2023-05-12T09:52:33.202Z,100446.31
2023-05-12T09:55:35.829Z,100446.72
2023-05-12T09:58:38.328Z,100451.31
2023-05-12T10:01:40.970Z,100447.09
2023-05-12T10:04:50.653Z,100448.91
2023-05-12T10:07:54.398Z,100431.62
2023-05-12T10:10:57.086Z,100435.16
2023-05-12T10:13:59.770Z,100431.72
2023-05-12T10:17:02.667Z,100436.78
2023-05-12T10:20:06.931Z,100434.56
2023-05-12T10:23:09.602Z,100434.47
2023-05-12T10:26:12.633Z,100440.13
2023-05-12T10:29:15.299Z,100436.19
2023-05-12T10:32:18.979Z,100429.97
2023-05-12T10:35:22.156Z,100433.31
2023-05-12T10:38:25.555Z,100434.16
2023-05-12T10:41:35.115Z,100443.44
2023-05-12T10:44:49.661Z,100444.34
2023-05-12T10:47:52.640Z,100444.13
2023-05-12T10:50:55.240Z,100444.97
2023-05-12T10:54:03.858Z,100446.81
2023-05-12T10:57:17.134Z,100445.00
2023-05-12T11:00:23.416Z,100433.37
2023-05-12T11:03:27.389Z,100436.97
2023-05-12T11:06:34.228Z,100430.41
2023-05-12T11:09:45.090Z,100428.94
2023-05-12T11:12:53.165Z,100424.53
2023-05-12T11:15:57.200Z,100433.03
2023-05-12T11:19:03.986Z,100431.13
2023-05-12T11:22:10.922Z,100435.81
2023-05-12T11:25:14.255Z,100432.03
2023-05-12T11:28:16.856Z,100434.53
2023-05-12T11:31:20.615Z,100436.09
2023-05-12T11:34:23.935Z,100429.63
2023-05-12T11:37:26.544Z,100437.75
2023-05-12T11:40:29.167Z,100433.34
2023-05-12T11:43:31.711Z,100430.84
2023-05-12T11:46:34.725Z,100432.47
2023-05-12T11:49:54.803Z,100436.84
2023-05-12T11:52:57.904Z,100442.81
2023-05-12T11:56:01.038Z,100438.84
2023-05-12T11:59:03.783Z,100437.00
2023-05-12T12:02:06.382Z,100438.66
2023-05-12T12:05:18.790Z,100435.59
2023-05-12T12:08:21.650Z,100440.87
2023-05-12T12:11:26.897Z,100446.91
2023-05-12T12:14:29.277Z,100453.53
2023-05-12T12:17:31.866Z,100444.13
2023-05-12T12:20:34.489Z,100453.13
2023-05-12T12:23:50.508Z,100462.34
2023-05-12T12:26:54.161Z,100454.53
2023-05-12T12:29:56.751Z,100460.66
2023-05-12T12:32:59.429Z,100459.16
2023-05-12T12:36:02.264Z,100463.38
2023-05-12T12:39:04.906Z,100464.22
2023-05-12T12:42:07.600Z,100460.87
2023-05-12T12:45:10.666Z,100455.22
2023-05-12T12:48:13.743Z,100453.44
2023-05-12T12:51:16.455Z,100454.53
2023-05-12T12:54:19.314Z,100460.03
2023-05-12T12:57:23.289Z,100460.03
2023-05-12T13:00:25.992Z,100455.22
2023-05-12T13:03:28.991Z,100462.03
2023-05-12T13:06:31.712Z,100459.38
2023-05-12T13:09:34.343Z,100462.50
2023-05-12T13:12:36.881Z,100454.56
2023-05-12T13:15:40.198Z,100453.09
2023-05-12T13:18:43.061Z,100451.59
2023-05-12T13:21:45.771Z,100450.16
2023-05-12T13:24:52.244Z,100456.06
2023-05-12T13:27:56.845Z,100451.19
2023-05-12T13:30:59.790Z,100456.53
2023-05-12T13:34:02.541Z,100450.44
2023-05-12T13:37:05.383Z,100455.88
2023-05-12T13:40:08.664Z,100460.03
2023-05-12T13:43:12.397Z,100453.56
2023-05-12T13:46:15.126Z,100458.22
2023-05-12T13:49:19.876Z,100454.56
2023-05-12T13:52:22.460Z,100458.88
2023-05-12T13:55:25.708Z,100458.03
2023-05-12T13:58:28.641Z,100469.34
2023-05-12T14:01:31.754Z,100466.41
2023-05-12T14:04:34.336Z,100468.34
2023-05-12T14:07:36.960Z,100472.09
2023-05-12T14:10:39.555Z,100477.41
2023-05-12T14:13:42.168Z,100475.53
2023-05-12T14:16:44.864Z,100477.28
2023-05-12T14:19:47.486Z,100486.16
2023-05-12T14:22:51.048Z,100492.25
2023-05-12T14:25:53.692Z,100501.00
2023-05-12T14:28:56.284Z,100496.59
2023-05-12T14:32:00.061Z,100508.06
2023-05-12T14:35:03.291Z,100500.91
2023-05-12T14:38:05.884Z,100508.72
2023-05-12T14:41:08.643Z,100511.25
2023-05-12T14:44:11.469Z,100512.94
2023-05-12T14:47:14.166Z,100515.59
2023-05-12T14:50:19.046Z,100514.00
2023-05-12T14:53:22.335Z,100521.09
2023-05-12T14:56:25.624Z,100515.06
2023-05-12T14:59:29.777Z,100519.34
2023-05-12T15:02:34.244Z,100522.00
2023-05-12T15:05:56.593Z,100521.91
2023-05-12T15:08:59.834Z,100519.97
2023-05-12T15:12:04.043Z,100531.44
2023-05-12T15:15:08.943Z,100535.00
2023-05-12T15:18:11.641Z,100530.62
2023-05-12T15:21:14.201Z,100530.53
2023-05-12T15:24:16.795Z,100532.66
2023-05-12T15:27:19.337Z,100533.66
2023-05-12T15:30:22.092Z,100524.22
2023-05-12T15:33:24.866Z,100525.78
2023-05-12T15:36:27.406Z,100530.00
2023-05-12T15:39:29.968Z,100525.84
2023-05-12T15:42:33.461Z,100529.72
2023-05-12T15:45:38.843Z,100520.97
2023-05-12T15:48:41.205Z,100526.91
2023-05-12T15:51:43.790Z,100521.69
2023-05-12T15:54:47.060Z,100526.91
2023-05-12T15:57:50.244Z,100525.13
2023-05-12T16:00:54.393Z,100519.13
2023-05-12T16:03:57.110Z,100524.47
2023-05-12T16:06:59.917Z,100520.09
2023-05-12T16:10:03.546Z,100523.53
2023-05-12T16:13:06.157Z,100521.13
2023-05-12T16:16:08.784Z,100519.16
2023-05-12T16:19:11.329Z,100520.62
2023-05-12T16:22:14.613Z,100524.28
2023-05-12T16:25:17.322Z,100521.00
2023-05-12T16:28:20.097Z,100522.91
2023-05-12T16:31:22.782Z,100532.31
2023-05-12T16:34:26.052Z,100537.69
2023-05-12T16:37:28.750Z,100541.13
2023-05-12T16:40:31.575Z,100540.12
2023-05-12T16:43:34.165Z,100542.50
2023-05-12T16:46:38.174Z,100547.16
2023-05-12T16:49:41.933Z,100539.44
2023-05-12T16:52:44.553Z,100543.62
2023-05-12T16:55:47.409Z,100548.00
2023-05-12T16:58:50.040Z,100553.28
2023-05-12T17:01:52.673Z,100557.50
2023-05-12T17:04:55.242Z,100553.13
2023-05-12T17:07:57.830Z,100550.84
2023-05-12T17:11:00.497Z,100551.41
2023-05-12T17:14:05.003Z,100553.38
2023-05-12T17:17:07.605Z,100550.72
2023-05-12T17:20:11.785Z,100564.78
2023-05-12T17:23:14.348Z,100562.19
2023-05-12T17:26:16.883Z,100571.12
2023-05-12T17:29:19.510Z,100566.47
2023-05-12T17:32:22.247Z,100565.03
2023-05-12T17:35:24.788Z,100574.50
2023-05-12T17:38:27.689Z,100569.13
2023-05-12T17:41:30.255Z,100567.19
